Time;durP1;ratioP1;P1;durP2;ratioP2;P2;SDS_P1;SDS_P2;PMS_P1;PMS_P2;Temp;Humidity;BMP_temperature;BMP_pressure;BME280_temperature;BME280_humidity;BME280_pressure;Samples;Min_cycle;Max_cycle;Signal;HPM_P1;HPM_P2
2022/02/25 00:02:18;;;;;;;2.70;1.30;;;22.40;51.00;;;;;;4990921;28;20209;-56
2022/02/25 00:04:49;;;;;;;3.08;1.33;;;22.40;51.00;;;;;;4990388;28;20205;-54
2022/02/25 00:07:20;;;;;;;2.58;1.02;;;22.40;51.10;;;;;;4971385;28;20288;-58
2022/02/25 00:09:50;;;;;;;3.17;1.20;;;22.40;51.00;;;;;;4988674;28;20202;-58
2022/02/25 00:12:23;;;;;;;2.58;1.23;;;22.50;51.00;;;;;;4990318;28;20189;-54
2022/02/25 00:14:54;;;;;;;2.00;1.05;;;22.50;51.00;;;;;;4991264;28;20252;-47
2022/02/25 00:17:25;;;;;;;3.95;1.13;;;22.50;50.90;;;;;;4989860;28;20271;-48
2022/02/25 00:19:55;;;;;;;4.10;1.38;;;22.50;50.80;;;;;;4990399;28;20204;-48
2022/02/25 00:22:26;;;;;;;4.18;1.23;;;22.60;50.90;;;;;;4976406;28;20734;-47
2022/02/25 00:24:57;;;;;;;4.43;1.30;;;22.60;51.20;;;;;;4989735;28;20264;-59
2022/02/25 00:27:29;;;;;;;5.70;1.50;;;22.60;51.30;;;;;;4970182;28;20773;-51
2022/02/25 00:30:00;;;;;;;2.97;1.30;;;22.70;51.30;;;;;;4981951;28;20198;-57
2022/02/25 00:32:30;;;;;;;2.83;1.23;;;22.60;51.30;;;;;;4990230;28;20194;-53
2022/02/25 00:35:01;;;;;;;3.28;1.15;;;22.70;51.20;;;;;;4990127;28;20198;-51
2022/02/25 00:37:32;;;;;;;3.95;1.20;;;22.80;51.10;;;;;;4989275;28;20593;-53
2022/02/25 00:40:03;;;;;;;3.45;1.40;;;22.80;51.10;;;;;;4976649;28;20202;-59
2022/02/25 00:42:36;;;;;;;3.95;1.17;;;22.80;51.00;;;;;;4972150;28;20281;-52
2022/02/25 00:45:07;;;;;;;3.03;1.20;;;22.90;51.00;;;;;;4988249;28;20206;-54
2022/02/25 00:47:38;;;;;;;5.82;1.27;;;22.90;51.00;;;;;;4988967;28;20193;-56
2022/02/25 00:50:10;;;;;;;4.68;1.55;;;22.90;51.00;;;;;;4988746;28;20225;-59
2022/02/25 00:52:41;;;;;;;4.68;1.50;;;23.00;51.60;;;;;;4988783;28;20193;-53
2022/02/25 00:55:13;;;;;;;3.03;1.35;;;23.00;50.80;;;;;;4988930;28;20205;-59
2022/02/25 00:57:50;;;;;;;2.75;1.08;;;23.00;50.70;;;;;;4989788;28;20190;-55
2022/02/25 01:00:22;;;;;;;5.03;1.50;;;23.00;50.70;;;;;;4988902;28;21686;-56
2022/02/25 01:02:52;;;;;;;3.78;1.13;;;23.10;50.70;;;;;;4989713;28;20259;-58
2022/02/25 01:05:23;;;;;;;3.42;1.15;;;23.10;50.50;;;;;;4989538;28;20201;-51
2022/02/25 01:07:53;;;;;;;2.50;1.33;;;23.10;50.40;;;;;;4988486;28;20778;-58
2022/02/25 01:10:24;;;;;;;3.20;1.40;;;23.20;50.40;;;;;;4987196;28;20241;-58
2022/02/25 01:12:57;;;;;;;2.17;1.20;;;23.20;50.30;;;;;;4988942;28;20209;-48
2022/02/25 01:15:27;;;;;;;5.65;1.35;;;23.20;50.20;;;;;;4980423;28;20221;-56
2022/02/25 01:17:58;;;;;;;5.22;1.65;;;23.20;50.10;;;;;;4969610;28;20198;-56
2022/02/25 01:20:29;;;;;;;4.82;1.50;;;23.20;50.00;;;;;;4969756;28;20225;-58
2022/02/25 01:23:00;;;;;;;3.35;1.15;;;23.20;50.00;;;;;;4969781;28;20194;-56
2022/02/25 01:25:30;;;;;;;3.80;1.25;;;23.20;50.00;;;;;;4968679;28;20206;-55
2022/02/25 01:28:03;;;;;;;4.40;1.33;;;23.30;50.00;;;;;;4981626;28;20534;-55
2022/02/25 01:30:34;;;;;;;2.65;1.13;;;23.30;49.90;;;;;;4988764;28;20227;-53
2022/02/25 01:33:05;;;;;;;2.30;1.00;;;23.30;49.90;;;;;;4988215;28;20273;-56
2022/02/25 01:35:38;;;;;;;5.20;1.55;;;23.30;49.70;;;;;;4969039;28;20198;-56
2022/02/25 01:38:08;;;;;;;3.38;1.30;;;23.40;49.70;;;;;;4988149;28;20692;-57
2022/02/25 01:40:39;;;;;;;3.63;1.40;;;23.40;49.70;;;;;;4986248;28;20704;-56
2022/02/25 01:43:11;;;;;;;3.25;1.27;;;23.40;49.60;;;;;;4989071;28;20202;-58
2022/02/25 01:45:42;;;;;;;6.78;1.40;;;23.40;49.60;;;;;;4988331;28;20194;-62
2022/02/25 01:48:13;;;;;;;7.10;1.60;;;23.40;49.30;;;;;;4989117;28;20190;-56
2022/02/25 01:50:44;;;;;;;4.57;1.80;;;23.40;49.00;;;;;;4968376;28;20226;-55
2022/02/25 01:53:15;;;;;;;4.03;1.35;;;23.40;48.90;;;;;;4978060;28;20201;-57
2022/02/25 01:55:47;;;;;;;6.65;1.70;;;23.40;48.80;;;;;;4988487;28;20190;-58
2022/02/25 01:58:19;;;;;;;5.05;1.40;;;23.40;48.80;;;;;;4988070;28;20284;-58
2022/02/25 02:00:50;;;;;;;3.55;1.23;;;23.40;48.90;;;;;;4988747;28;20217;-58
2022/02/25 02:03:21;;;;;;;6.80;1.40;;;23.40;48.90;;;;;;4988608;28;20599;-58
2022/02/25 02:05:51;;;;;;;4.53;2.00;;;23.40;49.00;;;;;;4991846;28;20193;-57
2022/02/25 02:08:22;;;;;;;3.92;1.20;;;23.40;48.90;;;;;;4992171;28;20630;-59
2022/02/25 02:10:54;;;;;;;4.15;1.20;;;23.40;48.90;;;;;;4991590;28;20232;-49
2022/02/25 02:13:27;;;;;;;2.60;1.40;;;23.40;49.00;;;;;;4991774;28;20210;-58
2022/02/25 02:15:57;;;;;;;3.97;1.50;;;23.50;49.10;;;;;;4992256;28;20206;-51
2022/02/25 02:18:28;;;;;;;4.55;1.42;;;23.50;49.10;;;;;;5011113;23;20583;-60
2022/02/25 02:20:59;;;;;;;3.13;1.27;;;23.50;49.00;;;;;;5011407;28;20225;-58
2022/02/25 02:23:31;;;;;;;1.98;1.20;;;23.50;49.00;;;;;;5011348;28;20195;-57
2022/02/25 02:26:02;;;;;;;4.00;1.30;;;23.50;48.90;;;;;;5011743;28;20679;-59
2022/02/25 02:28:33;;;;;;;3.95;1.38;;;23.50;48.80;;;;;;5011632;28;20193;-54
2022/02/25 02:31:03;;;;;;;4.85;1.50;;;23.50;48.80;;;;;;5009084;28;20229;-56
2022/02/25 02:33:34;;;;;;;3.70;1.35;;;23.60;48.80;;;;;;5011908;28;20201;-56
2022/02/25 02:36:07;;;;;;;4.28;1.40;;;23.60;48.80;;;;;;5011252;28;20193;-59
2022/02/25 02:38:41;;;;;;;4.47;1.40;;;23.60;48.70;;;;;;5011209;28;20188;-57
2022/02/25 02:41:11;;;;;;;5.68;1.55;;;23.70;49.30;;;;;;5010695;28;20615;-51
2022/02/25 02:43:42;;;;;;;6.32;1.40;;;23.70;48.60;;;;;;5011089;28;20609;-53
2022/02/25 02:46:13;;;;;;;5.57;1.50;;;23.70;48.50;;;;;;5009980;28;20247;-58
2022/02/25 02:48:45;;;;;;;3.63;1.33;;;23.70;48.30;;;;;;5011232;28;20192;-60
2022/02/25 02:51:15;;;;;;;4.60;1.35;;;23.70;48.30;;;;;;5010987;28;20286;-55
2022/02/25 02:53:48;;;;;;;3.40;1.33;;;23.70;48.20;;;;;;5010882;28;20197;-56
2022/02/25 02:56:19;;;;;;;3.72;1.25;;;23.80;48.30;;;;;;5010965;28;20197;-57
2022/02/25 02:58:55;;;;;;;5.00;1.65;;;23.80;48.20;;;;;;5011128;28;20635;-55
2022/02/25 03:01:27;;;;;;;3.83;1.33;;;23.80;48.20;;;;;;5010773;28;20220;-57
2022/02/25 03:03:58;;;;;;;4.43;1.38;;;23.80;48.00;;;;;;5010398;28;20201;-57
2022/02/25 03:06:29;;;;;;;3.33;1.30;;;23.80;48.00;;;;;;5009543;28;20205;-57
2022/02/25 03:09:02;;;;;;;2.70;1.40;;;23.80;48.00;;;;;;5011016;28;20204;-57
2022/02/25 03:11:33;;;;;;;2.97;1.30;;;23.80;47.90;;;;;;5010080;28;20237;-58
2022/02/25 03:14:03;;;;;;;3.63;1.30;;;23.90;48.00;;;;;;5010343;28;20200;-57
2022/02/25 03:16:34;;;;;;;5.63;1.48;;;23.90;47.90;;;;;;5009372;28;20189;-55
2022/02/25 03:19:05;;;;;;;4.10;1.00;;;23.90;48.00;;;;;;5010610;28;20236;-58
2022/02/25 03:21:35;;;;;;;3.50;1.20;;;24.00;48.00;;;;;;5018995;23;20624;-63
2022/02/25 03:24:09;;;;;;;3.05;1.15;;;24.00;48.00;;;;;;5010906;28;20240;-62
2022/02/25 03:26:39;;;;;;;5.63;1.40;;;24.00;48.10;;;;;;5010358;28;20189;-63
2022/02/25 03:29:10;;;;;;;4.38;1.50;;;24.00;48.00;;;;;;5008797;28;20251;-53
2022/02/25 03:31:40;;;;;;;4.88;1.20;;;24.00;48.00;;;;;;4995979;28;20321;-52
2022/02/25 03:34:11;;;;;;;5.80;1.20;;;24.10;47.90;;;;;;4990404;28;20205;-58
2022/02/25 03:36:42;;;;;;;3.10;1.25;;;24.10;47.90;;;;;;4990663;28;20202;-56
2022/02/25 03:39:14;;;;;;;4.70;1.48;;;24.10;47.90;;;;;;4990948;28;20279;-52
2022/02/25 03:41:45;;;;;;;4.38;1.55;;;24.10;47.90;;;;;;4989681;28;20226;-57
2022/02/25 03:44:15;;;;;;;5.05;1.30;;;24.10;47.80;;;;;;4990480;28;20213;-55
2022/02/25 03:46:47;;;;;;;6.00;1.58;;;24.20;47.90;;;;;;4990667;28;20197;-56
2022/02/25 03:49:18;;;;;;;5.78;1.40;;;24.20;47.80;;;;;;4987714;28;20551;-54
2022/02/25 03:51:49;;;;;;;4.40;1.20;;;24.20;47.80;;;;;;4990250;28;20233;-52
2022/02/25 03:54:21;;;;;;;3.63;1.27;;;24.20;47.70;;;;;;4990730;28;20227;-53
2022/02/25 03:56:52;;;;;;;3.53;1.33;;;24.20;47.70;;;;;;4990759;28;20189;-57
2022/02/25 03:59:22;;;;;;;3.75;1.00;;;24.30;47.80;;;;;;4990465;28;20205;-52
2022/02/25 04:01:53;;;;;;;3.20;1.27;;;24.30;47.80;;;;;;4991091;28;20268;-59
2022/02/25 04:04:25;;;;;;;2.88;1.23;;;24.30;47.80;;;;;;4990879;28;20280;-55
2022/02/25 04:06:56;;;;;;;3.45;1.02;;;24.30;47.80;;;;;;4988892;28;20193;-60
2022/02/25 04:09:28;;;;;;;4.97;1.58;;;24.40;47.90;;;;;;4991106;28;20197;-57
2022/02/25 04:12:00;;;;;;;1.95;0.82;;;24.30;47.70;;;;;;4989820;28;20245;-60
2022/02/25 04:14:31;;;;;;;4.18;1.30;;;24.40;47.80;;;;;;4989641;28;20739;-62
2022/02/25 04:17:01;;;;;;;3.05;1.02;;;24.50;47.90;;;;;;4989264;28;20248;-59
2022/02/25 04:19:32;;;;;;;5.03;1.40;;;24.50;47.80;;;;;;4990622;28;20190;-62
2022/02/25 04:22:02;;;;;;;2.70;1.27;;;24.50;47.80;;;;;;4989635;28;20220;-60
2022/02/25 04:24:35;;;;;;;3.05;1.25;;;24.50;47.80;;;;;;4987794;28;20202;-58
2022/02/25 04:27:06;;;;;;;3.85;1.33;;;24.50;47.80;;;;;;4989711;28;20205;-60
2022/02/25 04:29:36;;;;;;;2.55;1.13;;;24.60;47.80;;;;;;4990190;28;20692;-62
2022/02/25 04:32:08;;;;;;;3.67;1.27;;;24.60;47.70;;;;;;4989755;28;20221;-60
2022/02/25 04:34:38;;;;;;;4.57;1.33;;;24.60;47.70;;;;;;4989253;28;20194;-60
2022/02/25 04:37:09;;;;;;;4.10;1.40;;;24.70;47.70;;;;;;4989310;28;20217;-62
2022/02/25 04:39:41;;;;;;;2.97;1.08;;;24.70;47.80;;;;;;4989645;28;20201;-62
2022/02/25 04:42:12;;;;;;;3.55;1.00;;;24.70;47.70;;;;;;4989178;28;20217;-58
2022/02/25 04:44:43;;;;;;;3.80;1.52;;;24.70;47.70;;;;;;4989423;28;20201;-61
2022/02/25 04:47:13;;;;;;;2.63;1.00;;;24.80;47.60;;;;;;4989715;28;20194;-56
2022/02/25 04:49:44;;;;;;;5.20;1.35;;;24.80;47.70;;;;;;4989464;28;20737;-57
2022/02/25 04:52:14;;;;;;;2.70;0.90;;;24.80;47.70;;;;;;4987900;28;20236;-57
2022/02/25 04:54:47;;;;;;;3.05;1.20;;;24.80;47.70;;;;;;4989455;28;20209;-62
2022/02/25 04:57:18;;;;;;;4.82;1.40;;;24.90;47.70;;;;;;4989271;28;20206;-53
2022/02/25 04:59:48;;;;;;;2.20;1.10;;;24.90;47.70;;;;;;4988657;28;20205;-54
2022/02/25 05:02:19;;;;;;;2.55;1.30;;;24.90;47.70;;;;;;4989441;28;20225;-56
2022/02/25 05:04:49;;;;;;;2.65;1.23;;;24.90;47.70;;;;;;4989903;28;20197;-62
2022/02/25 05:07:20;;;;;;;2.33;0.80;;;24.90;47.60;;;;;;4988431;28;20189;-56
2022/02/25 05:09:52;;;;;;;3.00;1.40;;;25.00;47.60;;;;;;4989637;28;20252;-60
2022/02/25 05:12:23;;;;;;;2.67;1.10;;;25.00;47.60;;;;;;4988541;28;20229;-58
2022/02/25 05:20:26;;;;;;;3.78;1.00;;;25.10;47.30;;;;;;4988521;28;20711;-58
2022/02/25 05:22:59;;;;;;;3.25;1.38;;;25.10;47.30;;;;;;4988740;28;20201;-53
2022/02/25 05:25:32;;;;;;;3.97;1.35;;;25.10;47.30;;;;;;4988197;28;20194;-50
2022/02/25 05:28:03;;;;;;;3.72;1.25;;;25.10;47.30;;;;;;4988595;28;20554;-52
2022/02/25 05:30:33;;;;;;;3.10;1.00;;;25.10;47.10;;;;;;4988019;28;20213;-53
2022/02/25 05:33:04;;;;;;;3.20;1.20;;;25.10;47.10;;;;;;4989233;28;20228;-60
2022/02/25 05:35:34;;;;;;;2.72;1.30;;;25.20;47.20;;;;;;4988844;28;20197;-61
2022/02/25 05:38:06;;;;;;;3.63;1.10;;;25.10;47.10;;;;;;4988306;28;20198;-61
2022/02/25 05:40:38;;;;;;;2.90;1.10;;;25.10;47.10;;;;;;4987737;28;20694;-61
2022/02/25 05:43:09;;;;;;;3.45;1.27;;;25.20;47.20;;;;;;4988652;28;20201;-60
2022/02/25 05:45:40;;;;;;;1.95;1.00;;;25.20;47.10;;;;;;4987760;28;20251;-61
2022/02/25 05:48:10;;;;;;;2.38;1.17;;;25.20;47.10;;;;;;4986405;28;20705;-58
2022/02/25 05:50:41;;;;;;;4.88;1.20;;;25.30;47.30;;;;;;4988661;28;20221;-61
2022/02/25 05:53:13;;;;;;;2.72;1.15;;;25.20;47.20;;;;;;4986657;28;20292;-58
2022/02/25 05:55:46;;;;;;;4.57;1.13;;;25.30;47.10;;;;;;4989314;28;20629;-62
2022/02/25 05:58:16;;;;;;;3.22;1.23;;;25.30;47.10;;;;;;4988351;28;20216;-59
2022/02/25 06:00:47;;;;;;;2.63;1.00;;;25.30;47.10;;;;;;4988237;28;20295;-62
2022/02/25 06:03:18;;;;;;;2.35;1.23;;;25.30;47.00;;;;;;4988010;28;20252;-51
2022/02/25 06:05:49;;;;;;;2.70;1.10;;;25.30;47.00;;;;;;4988699;28;20198;-62
2022/02/25 06:08:19;;;;;;;3.42;1.10;;;25.30;47.00;;;;;;4988352;28;20197;-55
2022/02/25 06:10:52;;;;;;;3.35;1.20;;;25.30;47.00;;;;;;4988075;28;20635;-61
2022/02/25 06:13:22;;;;;;;3.33;1.30;;;25.30;46.90;;;;;;4987862;28;20225;-62
2022/02/25 06:15:53;;;;;;;3.03;1.40;;;25.30;46.90;;;;;;4988727;28;20202;-62
2022/02/25 06:18:23;;;;;;;2.90;1.38;;;25.30;46.90;;;;;;4988261;28;20198;-61
2022/02/25 06:20:54;;;;;;;3.22;1.35;;;25.30;46.90;;;;;;4984798;28;20268;-62
2022/02/25 06:23:24;;;;;;;3.55;1.65;;;25.30;46.80;;;;;;4987890;28;21480;-58
2022/02/25 06:25:58;;;;;;;3.05;1.48;;;25.30;46.90;;;;;;4985313;28;20289;-61
2022/02/25 06:28:29;;;;;;;3.53;1.35;;;25.30;46.90;;;;;;4988878;28;20194;-59
2022/02/25 06:31:00;;;;;;;3.33;1.23;;;25.30;46.80;;;;;;4988195;28;20712;-62
2022/02/25 06:33:30;;;;;;;2.53;1.50;;;25.30;46.90;;;;;;4975462;28;20230;-62
2022/02/25 06:36:01;;;;;;;3.53;1.63;;;25.30;47.60;;;;;;4969462;28;20735;-60
2022/02/25 06:38:31;;;;;;;3.15;1.30;;;25.30;47.00;;;;;;4970120;28;20264;-61
2022/02/25 06:41:04;;;;;;;3.10;1.30;;;25.30;47.00;;;;;;4969733;28;20642;-60
2022/02/25 06:43:34;;;;;;;3.83;1.35;;;25.30;47.00;;;;;;4970102;28;20249;-59
2022/02/25 06:46:05;;;;;;;3.50;1.30;;;25.30;47.00;;;;;;4969291;28;20237;-61
2022/02/25 06:48:35;;;;;;;2.63;1.27;;;25.20;46.90;;;;;;4968899;28;20206;-58
2022/02/25 06:51:06;;;;;;;2.13;1.23;;;25.20;47.00;;;;;;4972462;28;20266;-61
2022/02/25 06:53:37;;;;;;;2.95;1.58;;;25.20;46.90;;;;;;4973619;28;20300;-62
2022/02/25 06:56:10;;;;;;;1.98;1.15;;;25.20;47.00;;;;;;4973965;28;20190;-60
2022/02/25 06:58:40;;;;;;;3.22;1.50;;;25.20;47.00;;;;;;4973756;28;20646;-62
2022/02/25 07:01:11;;;;;;;3.65;1.80;;;25.20;47.10;;;;;;4973593;28;20566;-61
2022/02/25 07:03:41;;;;;;;3.03;1.30;;;25.10;47.00;;;;;;4973645;28;20197;-62
2022/02/25 07:06:12;;;;;;;4.10;1.40;;;25.20;47.10;;;;;;4973932;28;20293;-61
2022/02/25 07:08:43;;;;;;;3.60;1.40;;;25.10;47.00;;;;;;4973357;28;20717;-60
2022/02/25 07:11:15;;;;;;;3.58;1.33;;;25.10;47.00;;;;;;4972916;28;20230;-62
2022/02/25 07:13:46;;;;;;;2.35;1.30;;;25.10;47.00;;;;;;4972653;28;20234;-61
2022/02/25 07:16:16;;;;;;;2.60;1.50;;;25.10;47.00;;;;;;4972720;28;20199;-58
2022/02/25 07:18:47;;;;;;;3.38;1.30;;;25.10;47.00;;;;;;4972638;28;20238;-54
2022/02/25 07:29:10;;;;;;;2.88;1.50;;;24.90;47.10;;;;;;5081091;23;20240;-56
2022/02/25 07:31:41;;;;;;;2.55;1.30;;;24.90;47.10;;;;;;4992285;28;20546;-58
2022/02/25 07:34:12;;;;;;;2.25;1.30;;;24.90;47.20;;;;;;4992890;28;20693;-59
2022/02/25 07:36:43;;;;;;;5.20;1.60;;;24.90;47.30;;;;;;4992566;28;20193;-57
2022/02/25 07:39:13;;;;;;;2.35;1.02;;;24.90;47.30;;;;;;4992357;28;20201;-59
2022/02/25 07:41:44;;;;;;;2.28;1.17;;;24.80;47.30;;;;;;4992115;28;20225;-59
2022/02/25 07:44:16;;;;;;;2.25;1.20;;;24.80;47.30;;;;;;4992179;28;20252;-58
2022/02/25 07:46:47;;;;;;;2.83;1.20;;;24.80;47.30;;;;;;4992239;28;20189;-58
2022/02/25 07:49:18;;;;;;;2.08;1.20;;;24.80;47.40;;;;;;4992003;28;20601;-58
2022/02/25 07:51:50;;;;;;;4.00;1.20;;;24.70;47.30;;;;;;4992050;28;20783;-59
2022/02/25 07:54:21;;;;;;;2.00;1.00;;;24.70;47.30;;;;;;4992150;28;20233;-58
2022/02/25 07:56:51;;;;;;;2.13;1.05;;;24.70;47.40;;;;;;4992350;28;20193;-59
2022/02/25 07:59:24;;;;;;;2.10;1.00;;;24.70;47.40;;;;;;4992445;28;20201;-54
2022/02/25 08:01:54;;;;;;;3.60;1.10;;;24.70;47.40;;;;;;4991294;28;20210;-61
2022/02/25 08:04:25;;;;;;;4.97;1.33;;;24.60;47.40;;;;;;4991973;28;20265;-56
2022/02/25 08:06:56;;;;;;;6.57;1.85;;;24.60;47.50;;;;;;4991730;28;20292;-57
2022/02/25 08:09:26;;;;;;;7.55;1.50;;;24.50;47.50;;;;;;4998037;28;20696;-58
2022/02/25 08:11:57;;;;;;;3.47;1.63;;;24.50;47.60;;;;;;5008788;28;20217;-59
2022/02/25 08:14:30;;;;;;;3.58;1.33;;;24.50;47.70;;;;;;5009711;28;20220;-59
2022/02/25 08:17:00;;;;;;;4.72;1.48;;;24.50;47.80;;;;;;5008772;28;20201;-58
2022/02/25 08:19:31;;;;;;;5.50;1.60;;;24.40;47.80;;;;;;5009642;28;20200;-58
2022/02/25 08:22:01;;;;;;;4.80;1.70;;;24.40;47.80;;;;;;5021491;23;20307;-60
2022/02/25 08:24:32;;;;;;;8.02;1.50;;;24.30;47.80;;;;;;5008644;28;20193;-58
2022/02/25 08:27:03;;;;;;;4.93;1.40;;;24.30;47.80;;;;;;5009116;28;20197;-57
2022/02/25 08:29:36;;;;;;;3.90;1.70;;;24.30;47.90;;;;;;5006926;28;20205;-59
2022/02/25 08:32:07;;;;;;;6.32;1.50;;;24.30;47.90;;;;;;5008929;28;20267;-51
2022/02/25 08:34:38;;;;;;;5.10;1.50;;;24.30;48.00;;;;;;5003662;28;20224;-56
2022/02/25 08:37:09;;;;;;;5.47;1.92;;;24.20;48.00;;;;;;5009839;28;20203;-52
2022/02/25 08:39:39;;;;;;;3.63;1.48;;;24.20;48.00;;;;;;5007710;28;20197;-58
2022/02/25 08:42:10;;;;;;;6.90;1.50;;;24.20;48.10;;;;;;5008608;28;20213;-48
2022/02/25 08:44:43;;;;;;;4.32;1.40;;;24.10;48.60;;;;;;5008045;28;20220;-55
2022/02/25 08:47:14;;;;;;;3.30;1.23;;;24.10;48.00;;;;;;5009038;28;20193;-51
2022/02/25 08:49:45;;;;;;;2.20;1.08;;;24.10;48.10;;;;;;5009006;28;20189;-51
2022/02/25 08:52:15;;;;;;;3.22;1.20;;;24.10;48.20;;;;;;5008250;28;20216;-54
2022/02/25 08:54:46;;;;;;;4.53;1.42;;;24.00;48.10;;;;;;5008729;28;20766;-52
2022/02/25 08:57:17;;;;;;;3.88;1.27;;;24.00;48.20;;;;;;5008023;28;20189;-52
2022/02/25 08:59:49;;;;;;;2.75;1.13;;;24.00;48.20;;;;;;5008992;28;20200;-58
2022/02/25 09:02:20;;;;;;;4.15;1.52;;;23.90;48.20;;;;;;5007535;28;20212;-57
2022/02/25 09:04:51;;;;;;;3.05;1.25;;;23.90;48.20;;;;;;5009419;28;20204;-60
2022/02/25 09:07:21;;;;;;;4.22;1.73;;;23.90;48.20;;;;;;5007685;28;20960;-54
2022/02/25 09:09:52;;;;;;;2.72;1.10;;;23.80;48.30;;;;;;5003030;28;20291;-53
2022/02/25 09:12:22;;;;;;;3.13;1.40;;;23.80;48.30;;;;;;5002252;28;20200;-60
2022/02/25 09:14:55;;;;;;;5.15;1.73;;;23.80;48.30;;;;;;5007024;28;20235;-59
2022/02/25 09:17:26;;;;;;;3.97;1.63;;;23.80;48.40;;;;;;5007626;28;20279;-58
2022/02/25 09:19:57;;;;;;;2.20;1.33;;;23.70;48.30;;;;;;4998088;28;20190;-56
2022/02/25 09:22:28;;;;;;;3.90;1.20;;;23.70;48.30;;;;;;5002868;23;20737;-59
2022/02/25 09:24:58;;;;;;;2.20;1.13;;;23.70;48.40;;;;;;4990588;28;20306;-60
2022/02/25 09:27:29;;;;;;;2.80;1.10;;;23.70;48.40;;;;;;4990487;28;20769;-59
2022/02/25 09:30:02;;;;;;;3.28;1.30;;;23.60;48.40;;;;;;4990600;28;20264;-59
2022/02/25 09:32:33;;;;;;;2.17;1.17;;;23.60;48.40;;;;;;4990511;28;20196;-60
2022/02/25 09:35:03;;;;;;;3.15;1.27;;;23.60;48.50;;;;;;4989546;28;20345;-59
2022/02/25 09:37:35;;;;;;;2.95;1.40;;;23.50;48.40;;;;;;4990203;28;20701;-59
2022/02/25 09:40:07;;;;;;;4.38;1.10;;;23.50;48.50;;;;;;4984758;28;20886;-59
2022/02/25 09:42:38;;;;;;;2.92;1.20;;;23.50;48.50;;;;;;4971046;28;20198;-58
2022/02/25 09:45:13;;;;;;;3.05;1.17;;;23.40;48.50;;;;;;4971022;28;20265;-58
2022/02/25 09:47:44;;;;;;;2.90;1.30;;;23.40;48.50;;;;;;4971410;28;20197;-59
2022/02/25 09:50:16;;;;;;;3.58;1.27;;;23.40;48.60;;;;;;4981064;28;20197;-59
2022/02/25 09:52:47;;;;;;;1.95;0.95;;;23.40;48.60;;;;;;4973365;28;20191;-58
2022/02/25 09:55:28;;;;;;;2.65;1.00;;;23.30;48.50;;;;;;4954303;28;20191;-59
2022/02/25 09:58:00;;;;;;;2.75;1.05;;;23.30;48.60;;;;;;4951677;29;20726;-59
2022/02/25 10:00:34;;;;;;;2.83;1.00;;;23.30;48.60;;;;;;4951547;29;20934;-57
2022/02/25 10:03:08;;;;;;;2.70;1.35;;;23.20;48.60;;;;;;4951414;28;20203;-59
2022/02/25 10:05:39;;;;;;;3.80;1.38;;;23.20;48.70;;;;;;4976150;28;20224;-60
2022/02/25 10:08:15;;;;;;;2.13;1.00;;;23.20;48.60;;;;;;4989747;28;20198;-60
2022/02/25 10:10:49;;;;;;;3.40;1.33;;;23.20;48.70;;;;;;4979149;28;20226;-59
2022/02/25 10:13:21;;;;;;;4.43;1.20;;;23.10;48.70;;;;;;4970620;28;20218;-59
2022/02/25 10:15:54;;;;;;;2.53;1.13;;;23.10;48.70;;;;;;4970758;28;20210;-59
2022/02/25 10:18:26;;;;;;;2.33;1.30;;;23.10;48.70;;;;;;4970619;28;20198;-58
2022/02/25 10:23:42;;;;;;;2.55;0.93;;;23.00;48.70;;;;;;4987584;28;20221;-54
2022/02/25 10:26:16;;;;;;;1.83;0.88;;;23.00;48.70;;;;;;4992456;28;20284;-55
2022/02/25 10:28:49;;;;;;;3.45;1.20;;;23.00;48.80;;;;;;4993886;28;20251;-54
2022/02/25 10:31:26;;;;;;;2.08;1.10;;;22.90;48.70;;;;;;4994077;28;20265;-55
2022/02/25 10:34:04;;;;;;;2.13;0.93;;;22.90;48.70;;;;;;4994046;28;20228;-57
2022/02/25 10:36:44;;;;;;;3.72;1.55;;;22.90;48.80;;;;;;4993153;28;20396;-58
2022/02/25 10:39:20;;;;;;;2.55;1.15;;;22.90;48.80;;;;;;4971077;28;20195;-57
2022/02/25 10:42:05;;;;;;;2.35;1.23;;;22.80;48.80;;;;;;4954925;28;20222;-56
2022/02/25 10:44:46;;;;;;;1.27;0.85;;;22.80;48.80;;;;;;4954903;28;20198;-56
2022/02/25 10:47:23;;;;;;;2.17;0.98;;;22.80;48.90;;;;;;4954583;28;20203;-54
2022/02/25 10:50:01;;;;;;;1.40;0.80;;;22.70;48.90;;;;;;4963560;28;20212;-56
2022/02/25 10:52:34;;;;;;;3.10;1.17;;;22.70;49.00;;;;;;4993971;28;20661;-59
2022/02/25 10:55:07;;;;;;;2.13;0.95;;;22.70;49.00;;;;;;4993188;28;20225;-57
2022/02/25 10:57:38;;;;;;;2.05;1.17;;;22.70;49.00;;;;;;4993167;28;20198;-58
2022/02/25 11:00:12;;;;;;;2.75;1.30;;;22.60;49.00;;;;;;4993621;28;20201;-53
2022/02/25 11:02:47;;;;;;;1.95;1.13;;;22.60;49.10;;;;;;4993356;28;20716;-57
2022/02/25 11:05:19;;;;;;;1.27;0.98;;;22.60;49.00;;;;;;4992953;28;20201;-51
2022/02/25 11:07:51;;;;;;;2.17;1.10;;;22.60;49.10;;;;;;4992952;28;20197;-55
2022/02/25 11:10:24;;;;;;;2.85;1.30;;;22.60;49.10;;;;;;4985099;28;20273;-55
2022/02/25 11:12:55;;;;;;;2.95;1.27;;;22.50;49.10;;;;;;4973632;28;20198;-58
2022/02/25 11:15:29;;;;;;;1.52;0.80;;;22.50;49.10;;;;;;4973563;28;20309;-56
2022/02/25 11:18:02;;;;;;;2.08;1.02;;;22.50;49.10;;;;;;4973575;28;20202;-56
2022/02/25 11:20:34;;;;;;;1.48;0.82;;;22.50;49.10;;;;;;4981166;28;20221;-54
2022/02/25 11:23:06;;;;;;;1.88;1.23;;;22.40;49.10;;;;;;4993319;28;20674;-55
2022/02/25 11:25:39;;;;;;;2.53;0.98;;;22.40;49.20;;;;;;4992982;28;20708;-55
2022/02/25 11:28:10;;;;;;;1.92;1.05;;;22.40;49.20;;;;;;4992810;28;20284;-56
2022/02/25 11:30:45;;;;;;;1.52;0.98;;;22.40;49.20;;;;;;4992718;28;20213;-50
2022/02/25 11:33:19;;;;;;;3.55;1.23;;;22.40;49.20;;;;;;4992792;28;20197;-52
2022/02/25 11:35:53;;;;;;;1.42;1.00;;;22.30;49.20;;;;;;4992149;28;20305;-60
2022/02/25 11:38:33;;;;;;;1.88;1.00;;;22.30;49.30;;;;;;4991611;28;20204;-59
2022/02/25 11:41:05;;;;;;;1.65;1.13;;;22.30;49.30;;;;;;4978709;28;20262;-60
2022/02/25 11:43:44;;;;;;;2.83;1.00;;;22.30;49.30;;;;;;4972992;28;20202;-49
2022/02/25 11:46:22;;;;;;;2.33;0.90;;;22.20;49.30;;;;;;4971498;28;20213;-59
2022/02/25 11:48:57;;;;;;;2.08;1.10;;;22.20;49.30;;;;;;4973025;28;20285;-55
2022/02/25 11:51:36;;;;;;;1.60;1.00;;;22.20;49.30;;;;;;4986838;28;20681;-59
2022/02/25 11:54:28;;;;;;;2.72;1.10;;;22.20;49.40;;;;;;4991310;28;20221;-56
2022/02/25 11:57:24;;;;;;;1.92;0.90;;;22.10;49.40;;;;;;4972728;28;20253;-56
2022/02/25 12:00:18;;;;;;;1.27;0.90;;;22.10;49.40;;;;;;4972602;28;20205;-53
2022/02/25 12:03:18;;;;;;;1.95;1.17;;;22.10;49.40;;;;;;4972156;28;20198;-58
2022/02/25 12:05:51;;;;;;;1.67;1.00;;;22.10;49.40;;;;;;4980113;28;20248;-51
2022/02/25 12:08:34;;;;;;;1.38;0.80;;;22.00;49.40;;;;;;4991946;28;20625;-56
2022/02/25 12:11:32;;;;;;;1.20;0.80;;;22.00;49.40;;;;;;4978612;28;20226;-51
2022/02/25 12:14:03;;;;;;;2.05;0.98;;;22.00;49.50;;;;;;4972393;28;20224;-54
2022/02/25 12:16:36;;;;;;;1.65;0.93;;;22.00;49.40;;;;;;4972446;28;20252;-54
2022/02/25 12:19:24;;;;;;;2.20;1.00;;;21.90;49.50;;;;;;4972590;28;20202;-59
2022/02/25 12:21:56;;;;;;;1.10;0.95;;;21.90;49.60;;;;;;4988540;28;20229;-55
2022/02/25 12:24:27;;;;;;;1.63;0.90;;;21.90;49.60;;;;;;4991460;28;20201;-54
2022/02/25 12:27:02;;;;;;;1.75;0.82;;;21.90;49.50;;;;;;4991016;28;20197;-60
2022/02/25 12:29:39;;;;;;;2.08;0.90;;;21.90;49.60;;;;;;4991388;28;20200;-56
2022/02/25 12:32:10;;;;;;;1.85;0.73;;;21.80;49.60;;;;;;4990870;28;20221;-59
2022/02/25 12:34:40;;;;;;;1.20;0.80;;;21.80;49.50;;;;;;4956184;28;20223;-56
2022/02/25 12:37:20;;;;;;;1.50;0.82;;;21.80;49.60;;;;;;4987933;28;20724;-53
2022/02/25 12:40:04;;;;;;;1.17;0.80;;;21.80;49.60;;;;;;4988041;28;20263;-60
2022/02/25 12:42:35;;;;;;;1.38;0.90;;;21.80;49.60;;;;;;4972062;28;20571;-59
2022/02/25 12:45:05;;;;;;;1.27;0.70;;;21.70;49.60;;;;;;4971512;28;20202;-59
2022/02/25 12:47:36;;;;;;;2.17;0.98;;;21.70;49.70;;;;;;4971873;28;20202;-59
2022/02/25 12:50:08;;;;;;;2.00;1.00;;;21.70;50.30;;;;;;4971382;28;20347;-60
2022/02/25 12:52:44;;;;;;;1.70;0.90;;;21.70;49.70;;;;;;4990899;28;20200;-54
2022/02/25 12:55:19;;;;;;;1.80;0.82;;;21.70;49.80;;;;;;4991037;28;20229;-54
2022/02/25 12:57:56;;;;;;;1.55;0.70;;;21.60;49.70;;;;;;4991726;28;20196;-60
2022/02/25 13:00:26;;;;;;;1.48;0.80;;;21.60;50.30;;;;;;4991273;28;20272;-56
2022/02/25 13:02:57;;;;;;;1.85;0.80;;;21.60;50.30;;;;;;4991100;28;20205;-56
2022/02/25 13:05:28;;;;;;;1.20;1.00;;;21.60;49.70;;;;;;4990612;28;20202;-61
2022/02/25 13:08:01;;;;;;;1.05;0.70;;;21.50;49.70;;;;;;4991303;28;20827;-58
2022/02/25 13:10:32;;;;;;;1.20;0.90;;;21.60;49.80;;;;;;4982113;28;20230;-60
2022/02/25 13:13:11;;;;;;;2.45;1.00;;;21.60;49.80;;;;;;4971722;28;20202;-53
2022/02/25 13:15:42;;;;;;;1.38;0.80;;;21.50;49.80;;;;;;4971344;28;20221;-53
2022/02/25 13:18:23;;;;;;;0.95;0.70;;;21.50;49.80;;;;;;4971459;28;20199;-61
2022/02/25 13:21:01;;;;;;;2.67;0.82;;;21.50;49.80;;;;;;4975687;28;20217;-57
2022/02/25 13:23:35;;;;;;;3.38;0.98;;;21.50;49.90;;;;;;4990708;28;20280;-57
2022/02/25 13:26:08;;;;;;;1.10;0.80;;;21.50;49.80;;;;;;4990269;28;20202;-53
2022/02/25 13:28:38;;;;;;;2.03;0.90;;;21.40;49.80;;;;;;4990357;28;20347;-58
2022/02/25 13:31:09;;;;;;;1.45;0.80;;;21.40;49.80;;;;;;4990823;28;20229;-60